sensor_id;sensor_type;location;lat;lon;timestamp;P1;durP1;ratioP1;P2;durP2;ratioP2
505;SDS011;551;48.524;9.056;2023-09-12T00:00:11;11.73;;;10.00;;
505;SDS011;551;48.524;9.056;2023-09-12T00:02:37;12.40;;;10.90;;
505;SDS011;551;48.524;9.056;2023-09-12T00:05:03;16.70;;;10.67;;
505;SDS011;551;48.524;9.056;2023-09-12T00:07:29;13.37;;;11.10;;
505;SDS011;551;48.524;9.056;2023-09-12T00:09:55;17.10;;;9.90;;
505;SDS011;551;48.524;9.056;2023-09-12T00:12:22;11.63;;;10.23;;
505;SDS011;551;48.524;9.056;2023-09-12T00:14:49;13.87;;;10.27;;
505;SDS011;551;48.524;9.056;2023-09-12T00:17:15;15.10;;;11.23;;
505;SDS011;551;48.524;9.056;2023-09-12T00:19:42;14.90;;;10.93;;
505;SDS011;551;48.524;9.056;2023-09-12T00:22:08;16.83;;;10.43;;
505;SDS011;551;48.524;9.056;2023-09-12T00:24:33;16.03;;;11.30;;
505;SDS011;551;48.524;9.056;2023-09-12T00:26:58;13.23;;;11.13;;
505;SDS011;551;48.524;9.056;2023-09-12T00:29:24;19.03;;;10.40;;
505;SDS011;551;48.524;9.056;2023-09-12T00:31:49;16.50;;;10.53;;
505;SDS011;551;48.524;9.056;2023-09-12T00:34:15;14.47;;;10.50;;
505;SDS011;551;48.524;9.056;2023-09-12T00:36:42;16.13;;;10.33;;
505;SDS011;551;48.524;9.056;2023-09-12T00:39:07;14.07;;;10.37;;
505;SDS011;551;48.524;9.056;2023-09-12T00:41:33;15.33;;;11.30;;
505;SDS011;551;48.524;9.056;2023-09-12T00:43:58;28.53;;;12.67;;
505;SDS011;551;48.524;9.056;2023-09-12T00:46:24;18.60;;;12.13;;
505;SDS011;551;48.524;9.056;2023-09-12T00:48:50;18.70;;;10.73;;
505;SDS011;551;48.524;9.056;2023-09-12T00:51:17;15.80;;;11.50;;
505;SDS011;551;48.524;9.056;2023-09-12T00:53:45;13.97;;;11.20;;
505;SDS011;551;48.524;9.056;2023-09-12T00:56:11;18.00;;;11.70;;
505;SDS011;551;48.524;9.056;2023-09-12T00:58:37;15.23;;;11.30;;
505;SDS011;551;48.524;9.056;2023-09-12T01:01:03;12.50;;;11.03;;
505;SDS011;551;48.524;9.056;2023-09-12T01:03:29;16.53;;;11.33;;
505;SDS011;551;48.524;9.056;2023-09-12T01:05:55;14.70;;;11.20;;
505;SDS011;551;48.524;9.056;2023-09-12T01:08:22;18.97;;;12.10;;
505;SDS011;551;48.524;9.056;2023-09-12T01:10:48;19.80;;;12.30;;
505;SDS011;551;48.524;9.056;2023-09-12T01:13:14;15.70;;;11.80;;
505;SDS011;551;48.524;9.056;2023-09-12T01:15:40;13.93;;;12.07;;
505;SDS011;551;48.524;9.056;2023-09-12T01:18:06;16.80;;;10.83;;
505;SDS011;551;48.524;9.056;2023-09-12T01:20:32;19.43;;;11.43;;
505;SDS011;551;48.524;9.056;2023-09-12T01:26:01;12.73;;;10.00;;
505;SDS011;551;48.524;9.056;2023-09-12T01:28:49;14.00;;;10.43;;
505;SDS011;551;48.524;9.056;2023-09-12T01:31:16;15.77;;;11.90;;
505;SDS011;551;48.524;9.056;2023-09-12T01:33:42;19.03;;;12.90;;
505;SDS011;551;48.524;9.056;2023-09-12T01:36:09;17.63;;;11.53;;
505;SDS011;551;48.524;9.056;2023-09-12T01:38:35;17.03;;;11.27;;
505;SDS011;551;48.524;9.056;2023-09-12T01:41:00;17.60;;;13.00;;
505;SDS011;551;48.524;9.056;2023-09-12T01:43:26;13.70;;;11.70;;
505;SDS011;551;48.524;9.056;2023-09-12T01:45:53;18.10;;;12.17;;
505;SDS011;551;48.524;9.056;2023-09-12T01:48:22;20.03;;;11.90;;
505;SDS011;551;48.524;9.056;2023-09-12T01:50:51;14.93;;;11.90;;
505;SDS011;551;48.524;9.056;2023-09-12T01:53:17;14.33;;;11.80;;
505;SDS011;551;48.524;9.056;2023-09-12T01:55:43;21.13;;;11.73;;
505;SDS011;551;48.524;9.056;2023-09-12T01:58:11;19.43;;;13.17;;
505;SDS011;551;48.524;9.056;2023-09-12T02:00:38;14.90;;;13.07;;
505;SDS011;551;48.524;9.056;2023-09-12T02:03:05;13.33;;;11.60;;
505;SDS011;551;48.524;9.056;2023-09-12T02:05:30;17.80;;;11.37;;
505;SDS011;551;48.524;9.056;2023-09-12T02:07:56;17.77;;;12.10;;
505;SDS011;551;48.524;9.056;2023-09-12T02:10:22;16.10;;;11.80;;
505;SDS011;551;48.524;9.056;2023-09-12T02:12:47;13.73;;;11.33;;
505;SDS011;551;48.524;9.056;2023-09-12T02:15:13;17.93;;;12.23;;
505;SDS011;551;48.524;9.056;2023-09-12T02:17:39;16.00;;;12.67;;
505;SDS011;551;48.524;9.056;2023-09-12T02:20:06;16.47;;;12.13;;
505;SDS011;551;48.524;9.056;2023-09-12T02:22:33;14.70;;;11.60;;
505;SDS011;551;48.524;9.056;2023-09-12T02:24:58;12.87;;;10.53;;
505;SDS011;551;48.524;9.056;2023-09-12T02:27:24;16.07;;;11.90;;
505;SDS011;551;48.524;9.056;2023-09-12T02:29:49;12.87;;;10.60;;
505;SDS011;551;48.524;9.056;2023-09-12T02:32:15;13.50;;;11.70;;
505;SDS011;551;48.524;9.056;2023-09-12T02:34:41;14.10;;;11.60;;
505;SDS011;551;48.524;9.056;2023-09-12T02:37:06;16.00;;;12.17;;
505;SDS011;551;48.524;9.056;2023-09-12T02:39:32;17.00;;;10.87;;
505;SDS011;551;48.524;9.056;2023-09-12T02:41:57;20.23;;;11.87;;
505;SDS011;551;48.524;9.056;2023-09-12T02:44:23;18.97;;;12.77;;
505;SDS011;551;48.524;9.056;2023-09-12T02:46:48;16.10;;;12.13;;
505;SDS011;551;48.524;9.056;2023-09-12T02:49:13;14.23;;;12.23;;
505;SDS011;551;48.524;9.056;2023-09-12T02:51:39;27.13;;;12.90;;
505;SDS011;551;48.524;9.056;2023-09-12T02:54:05;15.60;;;11.30;;
505;SDS011;551;48.524;9.056;2023-09-12T02:56:30;17.17;;;12.27;;
505;SDS011;551;48.524;9.056;2023-09-12T02:58:56;18.00;;;11.30;;
505;SDS011;551;48.524;9.056;2023-09-12T03:01:22;14.10;;;11.50;;
505;SDS011;551;48.524;9.056;2023-09-12T03:03:49;17.47;;;12.23;;
505;SDS011;551;48.524;9.056;2023-09-12T03:06:15;13.87;;;11.53;;
505;SDS011;551;48.524;9.056;2023-09-12T03:08:43;14.60;;;12.17;;
505;SDS011;551;48.524;9.056;2023-09-12T03:11:09;20.63;;;12.53;;
505;SDS011;551;48.524;9.056;2023-09-12T03:13:36;13.50;;;11.33;;
505;SDS011;551;48.524;9.056;2023-09-12T03:16:02;14.33;;;12.83;;
505;SDS011;551;48.524;9.056;2023-09-12T03:18:28;15.40;;;12.47;;
505;SDS011;551;48.524;9.056;2023-09-12T03:20:53;15.50;;;11.83;;
505;SDS011;551;48.524;9.056;2023-09-12T03:23:19;14.23;;;11.80;;
505;SDS011;551;48.524;9.056;2023-09-12T03:25:45;17.67;;;12.40;;
505;SDS011;551;48.524;9.056;2023-09-12T03:28:11;15.40;;;11.87;;
505;SDS011;551;48.524;9.056;2023-09-12T03:30:37;15.87;;;11.57;;
505;SDS011;551;48.524;9.056;2023-09-12T03:33:03;18.20;;;11.80;;
505;SDS011;551;48.524;9.056;2023-09-12T03:35:29;16.43;;;11.57;;
505;SDS011;551;48.524;9.056;2023-09-12T03:37:56;23.90;;;12.60;;
505;SDS011;551;48.524;9.056;2023-09-12T03:40:21;13.10;;;11.70;;
505;SDS011;551;48.524;9.056;2023-09-12T03:42:47;13.70;;;10.93;;
505;SDS011;551;48.524;9.056;2023-09-12T03:45:12;14.67;;;11.60;;
505;SDS011;551;48.524;9.056;2023-09-12T03:47:38;15.00;;;12.10;;
505;SDS011;551;48.524;9.056;2023-09-12T03:50:03;14.73;;;11.80;;
505;SDS011;551;48.524;9.056;2023-09-12T03:52:29;16.03;;;11.87;;
505;SDS011;551;48.524;9.056;2023-09-12T03:54:55;14.00;;;12.23;;
505;SDS011;551;48.524;9.056;2023-09-12T03:57:20;17.03;;;12.23;;
505;SDS011;551;48.524;9.056;2023-09-12T03:59:46;23.80;;;12.40;;
505;SDS011;551;48.524;9.056;2023-09-12T04:02:12;17.33;;;11.43;;
505;SDS011;551;48.524;9.056;2023-09-12T04:04:38;14.93;;;12.03;;
505;SDS011;551;48.524;9.056;2023-09-12T04:07:04;15.13;;;12.10;;
505;SDS011;551;48.524;9.056;2023-09-12T04:09:30;20.23;;;12.67;;
505;SDS011;551;48.524;9.056;2023-09-12T04:11:55;14.67;;;12.60;;
505;SDS011;551;48.524;9.056;2023-09-12T04:14:21;19.47;;;13.03;;
505;SDS011;551;48.524;9.056;2023-09-12T04:16:47;19.60;;;11.17;;
505;SDS011;551;48.524;9.056;2023-09-12T04:19:15;16.03;;;11.97;;
505;SDS011;551;48.524;9.056;2023-09-12T04:21:41;13.20;;;11.83;;
505;SDS011;551;48.524;9.056;2023-09-12T04:24:07;14.13;;;11.37;;
505;SDS011;551;48.524;9.056;2023-09-12T04:26:35;20.80;;;15.03;;
505;SDS011;551;48.524;9.056;2023-09-12T04:29:01;18.90;;;12.70;;
505;SDS011;551;48.524;9.056;2023-09-12T04:31:27;14.67;;;11.97;;
505;SDS011;551;48.524;9.056;2023-09-12T04:33:53;26.27;;;13.07;;
505;SDS011;551;48.524;9.056;2023-09-12T04:36:19;19.17;;;13.00;;
505;SDS011;551;48.524;9.056;2023-09-12T04:38:45;16.77;;;12.23;;
505;SDS011;551;48.524;9.056;2023-09-12T04:41:13;13.53;;;11.53;;
505;SDS011;551;48.524;9.056;2023-09-12T04:43:42;17.30;;;11.47;;
505;SDS011;551;48.524;9.056;2023-09-12T04:46:09;19.03;;;14.73;;
505;SDS011;551;48.524;9.056;2023-09-12T04:48:35;18.20;;;12.50;;
505;SDS011;551;48.524;9.056;2023-09-12T04:51:00;15.93;;;12.80;;
505;SDS011;551;48.524;9.056;2023-09-12T04:53:26;16.00;;;12.60;;
505;SDS011;551;48.524;9.056;2023-09-12T04:55:52;20.13;;;12.10;;
505;SDS011;551;48.524;9.056;2023-09-12T04:58:18;16.40;;;11.30;;
505;SDS011;551;48.524;9.056;2023-09-12T05:00:45;19.23;;;13.80;;
505;SDS011;551;48.524;9.056;2023-09-12T05:03:10;14.20;;;10.80;;
505;SDS011;551;48.524;9.056;2023-09-12T05:05:36;21.03;;;14.07;;
505;SDS011;551;48.524;9.056;2023-09-12T05:08:02;21.40;;;14.67;;
505;SDS011;551;48.524;9.056;2023-09-12T05:10:28;21.97;;;12.03;;
505;SDS011;551;48.524;9.056;2023-09-12T05:12:54;19.10;;;13.20;;
505;SDS011;551;48.524;9.056;2023-09-12T05:15:19;19.70;;;12.93;;
505;SDS011;551;48.524;9.056;2023-09-12T05:17:45;18.47;;;12.17;;
505;SDS011;551;48.524;9.056;2023-09-12T05:20:10;13.80;;;11.83;;
505;SDS011;551;48.524;9.056;2023-09-12T05:22:36;18.30;;;13.80;;
505;SDS011;551;48.524;9.056;2023-09-12T05:25:02;16.50;;;13.00;;
505;SDS011;551;48.524;9.056;2023-09-12T05:27:27;18.83;;;12.60;;
505;SDS011;551;48.524;9.056;2023-09-12T05:29:53;17.07;;;13.80;;
505;SDS011;551;48.524;9.056;2023-09-12T05:32:18;29.00;;;13.20;;
505;SDS011;551;48.524;9.056;2023-09-12T05:34:44;19.63;;;12.70;;
505;SDS011;551;48.524;9.056;2023-09-12T05:37:10;18.57;;;12.10;;
505;SDS011;551;48.524;9.056;2023-09-12T05:39:36;23.17;;;13.10;;
505;SDS011;551;48.524;9.056;2023-09-12T05:42:01;15.63;;;11.97;;
505;SDS011;551;48.524;9.056;2023-09-12T05:44:27;15.53;;;11.80;;
505;SDS011;551;48.524;9.056;2023-09-12T05:46:52;15.73;;;11.30;;
505;SDS011;551;48.524;9.056;2023-09-12T05:49:18;16.00;;;11.40;;
505;SDS011;551;48.524;9.056;2023-09-12T05:51:44;16.57;;;12.07;;
505;SDS011;551;48.524;9.056;2023-09-12T05:54:10;16.20;;;11.67;;
505;SDS011;551;48.524;9.056;2023-09-12T05:56:38;21.13;;;12.60;;
505;SDS011;551;48.524;9.056;2023-09-12T05:59:04;18.63;;;12.17;;
505;SDS011;551;48.524;9.056;2023-09-12T06:01:30;14.47;;;11.10;;
505;SDS011;551;48.524;9.056;2023-09-12T06:03:55;15.80;;;12.03;;
505;SDS011;551;48.524;9.056;2023-09-12T06:06:21;16.30;;;11.73;;
505;SDS011;551;48.524;9.056;2023-09-12T06:08:47;15.77;;;12.03;;
505;SDS011;551;48.524;9.056;2023-09-12T06:11:13;15.50;;;11.67;;
505;SDS011;551;48.524;9.056;2023-09-12T06:13:38;14.37;;;12.10;;
505;SDS011;551;48.524;9.056;2023-09-12T06:16:04;15.30;;;11.13;;
505;SDS011;551;48.524;9.056;2023-09-12T06:18:31;14.83;;;10.80;;
505;SDS011;551;48.524;9.056;2023-09-12T06:20:58;17.93;;;12.40;;
505;SDS011;551;48.524;9.056;2023-09-12T06:23:23;14.17;;;12.27;;
505;SDS011;551;48.524;9.056;2023-09-12T06:25:49;15.70;;;11.80;;
505;SDS011;551;48.524;9.056;2023-09-12T06:28:24;16.93;;;11.20;;
505;SDS011;551;48.524;9.056;2023-09-12T06:30:50;16.23;;;10.87;;
505;SDS011;551;48.524;9.056;2023-09-12T06:33:16;15.47;;;11.17;;
505;SDS011;551;48.524;9.056;2023-09-12T06:35:41;13.23;;;9.93;;
505;SDS011;551;48.524;9.056;2023-09-12T06:38:07;22.83;;;11.03;;
505;SDS011;551;48.524;9.056;2023-09-12T06:40:32;13.53;;;10.00;;
505;SDS011;551;48.524;9.056;2023-09-12T06:42:58;18.03;;;10.80;;
505;SDS011;551;48.524;9.056;2023-09-12T06:45:23;15.10;;;10.97;;
505;SDS011;551;48.524;9.056;2023-09-12T06:47:49;18.27;;;11.13;;
505;SDS011;551;48.524;9.056;2023-09-12T06:50:15;18.83;;;11.40;;
505;SDS011;551;48.524;9.056;2023-09-12T06:52:40;17.10;;;11.20;;
505;SDS011;551;48.524;9.056;2023-09-12T06:55:06;11.50;;;10.33;;
505;SDS011;551;48.524;9.056;2023-09-12T06:57:32;18.80;;;12.60;;
505;SDS011;551;48.524;9.056;2023-09-12T06:59:57;15.47;;;11.30;;
505;SDS011;551;48.524;9.056;2023-09-12T07:02:23;16.87;;;10.97;;
505;SDS011;551;48.524;9.056;2023-09-12T07:04:48;17.47;;;11.50;;
505;SDS011;551;48.524;9.056;2023-09-12T07:07:14;19.07;;;11.77;;
505;SDS011;551;48.524;9.056;2023-09-12T07:09:39;16.67;;;10.90;;
505;SDS011;551;48.524;9.056;2023-09-12T07:12:05;15.23;;;10.37;;
505;SDS011;551;48.524;9.056;2023-09-12T07:14:31;16.00;;;11.23;;
505;SDS011;551;48.524;9.056;2023-09-12T07:16:56;13.47;;;10.23;;
505;SDS011;551;48.524;9.056;2023-09-12T07:19:22;14.30;;;10.70;;
505;SDS011;551;48.524;9.056;2023-09-12T07:21:49;13.57;;;10.90;;
505;SDS011;551;48.524;9.056;2023-09-12T07:24:14;14.93;;;10.30;;
505;SDS011;551;48.524;9.056;2023-09-12T07:26:40;14.63;;;10.20;;
505;SDS011;551;48.524;9.056;2023-09-12T07:29:05;15.80;;;10.93;;
505;SDS011;551;48.524;9.056;2023-09-12T07:31:31;13.00;;;10.30;;
505;SDS011;551;48.524;9.056;2023-09-12T07:33:56;12.10;;;10.70;;
505;SDS011;551;48.524;9.056;2023-09-12T07:36:22;18.90;;;11.37;;
505;SDS011;551;48.524;9.056;2023-09-12T07:38:47;14.53;;;11.93;;
505;SDS011;551;48.524;9.056;2023-09-12T07:41:13;12.20;;;10.00;;
505;SDS011;551;48.524;9.056;2023-09-12T07:43:39;20.20;;;11.27;;
505;SDS011;551;48.524;9.056;2023-09-12T07:46:05;14.60;;;11.30;;
505;SDS011;551;48.524;9.056;2023-09-12T07:48:30;11.77;;;10.13;;
505;SDS011;551;48.524;9.056;2023-09-12T07:50:57;15.77;;;11.00;;
505;SDS011;551;48.524;9.056;2023-09-12T07:53:22;17.43;;;11.13;;
505;SDS011;551;48.524;9.056;2023-09-12T07:55:48;15.70;;;10.50;;
505;SDS011;551;48.524;9.056;2023-09-12T07:58:17;21.03;;;11.07;;
505;SDS011;551;48.524;9.056;2023-09-12T08:00:49;14.63;;;11.17;;
505;SDS011;551;48.524;9.056;2023-09-12T08:03:14;16.13;;;10.70;;
505;SDS011;551;48.524;9.056;2023-09-12T08:05:40;14.70;;;11.10;;
505;SDS011;551;48.524;9.056;2023-09-12T08:08:06;18.10;;;12.23;;
505;SDS011;551;48.524;9.056;2023-09-12T08:10:31;18.17;;;10.67;;
505;SDS011;551;48.524;9.056;2023-09-12T08:12:57;13.60;;;10.90;;
505;SDS011;551;48.524;9.056;2023-09-12T08:15:22;14.17;;;10.33;;
505;SDS011;551;48.524;9.056;2023-09-12T08:17:48;14.73;;;10.87;;
505;SDS011;551;48.524;9.056;2023-09-12T08:20:16;16.17;;;12.33;;
505;SDS011;551;48.524;9.056;2023-09-12T08:22:43;18.47;;;11.73;;
505;SDS011;551;48.524;9.056;2023-09-12T08:25:08;19.67;;;12.30;;
505;SDS011;551;48.524;9.056;2023-09-12T08:27:35;14.00;;;12.40;;
505;SDS011;551;48.524;9.056;2023-09-12T08:30:00;21.77;;;12.27;;
505;SDS011;551;48.524;9.056;2023-09-12T08:32:26;15.97;;;11.97;;
505;SDS011;551;48.524;9.056;2023-09-12T08:34:51;13.63;;;12.30;;
505;SDS011;551;48.524;9.056;2023-09-12T08:37:17;13.80;;;12.27;;
505;SDS011;551;48.524;9.056;2023-09-12T08:39:44;13.20;;;11.90;;
505;SDS011;551;48.524;9.056;2023-09-12T08:42:11;14.50;;;12.27;;
505;SDS011;551;48.524;9.056;2023-09-12T08:44:39;14.80;;;12.80;;
505;SDS011;551;48.524;9.056;2023-09-12T08:47:07;17.73;;;11.97;;
505;SDS011;551;48.524;9.056;2023-09-12T08:49:36;13.83;;;11.77;;
505;SDS011;551;48.524;9.056;2023-09-12T08:52:03;13.50;;;12.10;;
505;SDS011;551;48.524;9.056;2023-09-12T08:54:29;13.57;;;12.37;;
505;SDS011;551;48.524;9.056;2023-09-12T08:56:55;12.83;;;11.70;;
505;SDS011;551;48.524;9.056;2023-09-12T08:59:21;18.13;;;11.47;;
505;SDS011;551;48.524;9.056;2023-09-12T09:01:47;14.73;;;13.13;;
505;SDS011;551;48.524;9.056;2023-09-12T09:04:16;13.90;;;12.13;;
505;SDS011;551;48.524;9.056;2023-09-12T09:06:44;13.50;;;12.30;;
505;SDS011;551;48.524;9.056;2023-09-12T09:09:11;14.83;;;10.90;;
505;SDS011;551;48.524;9.056;2023-09-12T09:11:37;11.70;;;10.57;;
505;SDS011;551;48.524;9.056;2023-09-12T09:14:02;15.37;;;13.73;;
505;SDS011;551;48.524;9.056;2023-09-12T09:16:28;13.43;;;12.30;;
505;SDS011;551;48.524;9.056;2023-09-12T09:19:01;13.83;;;12.40;;
505;SDS011;551;48.524;9.056;2023-09-12T09:21:29;18.20;;;12.87;;
505;SDS011;551;48.524;9.056;2023-09-12T09:24:00;15.30;;;13.50;;
505;SDS011;551;48.524;9.056;2023-09-12T09:26:41;13.90;;;12.50;;
505;SDS011;551;48.524;9.056;2023-09-12T09:29:10;12.87;;;11.77;;
505;SDS011;551;48.524;9.056;2023-09-12T09:31:44;13.63;;;12.53;;
505;SDS011;551;48.524;9.056;2023-09-12T09:34:11;13.10;;;11.90;;
505;SDS011;551;48.524;9.056;2023-09-12T09:36:41;11.70;;;10.80;;
505;SDS011;551;48.524;9.056;2023-09-12T09:39:08;14.93;;;12.70;;
505;SDS011;551;48.524;9.056;2023-09-12T09:41:34;12.30;;;11.27;;
505;SDS011;551;48.524;9.056;2023-09-12T09:44:00;13.27;;;11.93;;
505;SDS011;551;48.524;9.056;2023-09-12T09:46:26;13.97;;;12.37;;
505;SDS011;551;48.524;9.056;2023-09-12T09:48:53;13.47;;;12.10;;
505;SDS011;551;48.524;9.056;2023-09-12T09:51:19;12.97;;;11.97;;
505;SDS011;551;48.524;9.056;2023-09-12T09:53:44;14.27;;;12.97;;
505;SDS011;551;48.524;9.056;2023-09-12T09:56:11;13.07;;;11.53;;
505;SDS011;551;48.524;9.056;2023-09-12T09:58:52;13.87;;;12.57;;
505;SDS011;551;48.524;9.056;2023-09-12T10:01:22;14.50;;;13.03;;
505;SDS011;551;48.524;9.056;2023-09-12T10:03:50;12.77;;;11.60;;
505;SDS011;551;48.524;9.056;2023-09-12T10:06:16;14.60;;;12.30;;
505;SDS011;551;48.524;9.056;2023-09-12T10:08:43;12.67;;;11.57;;
505;SDS011;551;48.524;9.056;2023-09-12T10:11:12;11.47;;;10.53;;
505;SDS011;551;48.524;9.056;2023-09-12T10:13:41;12.53;;;11.43;;
505;SDS011;551;48.524;9.056;2023-09-12T10:16:11;12.37;;;11.13;;
505;SDS011;551;48.524;9.056;2023-09-12T10:18:38;12.13;;;11.13;;
505;SDS011;551;48.524;9.056;2023-09-12T10:21:11;13.30;;;11.70;;
505;SDS011;551;48.524;9.056;2023-09-12T10:23:44;12.47;;;11.17;;
505;SDS011;551;48.524;9.056;2023-09-12T10:26:12;11.90;;;10.90;;
505;SDS011;551;48.524;9.056;2023-09-12T10:28:42;13.97;;;11.90;;
505;SDS011;551;48.524;9.056;2023-09-12T10:31:08;12.37;;;11.37;;
505;SDS011;551;48.524;9.056;2023-09-12T10:33:36;13.00;;;11.70;;
505;SDS011;551;48.524;9.056;2023-09-12T10:36:08;13.20;;;12.20;;
505;SDS011;551;48.524;9.056;2023-09-12T10:38:36;11.50;;;10.73;;
505;SDS011;551;48.524;9.056;2023-09-12T10:41:06;13.33;;;12.13;;
505;SDS011;551;48.524;9.056;2023-09-12T10:43:41;12.63;;;11.63;;
505;SDS011;551;48.524;9.056;2023-09-12T10:46:08;12.17;;;11.10;;
505;SDS011;551;48.524;9.056;2023-09-12T10:48:34;12.27;;;11.37;;
505;SDS011;551;48.524;9.056;2023-09-12T10:51:01;10.63;;;9.93;;
505;SDS011;551;48.524;9.056;2023-09-12T10:53:30;10.88;;;9.90;;
505;SDS011;551;48.524;9.056;2023-09-12T10:55:57;11.15;;;10.43;;
505;SDS011;551;48.524;9.056;2023-09-12T10:58:24;12.32;;;11.07;;
505;SDS011;551;48.524;9.056;2023-09-12T11:03:49;15.35;;;11.77;;
505;SDS011;551;48.524;9.056;2023-09-12T11:06:21;12.50;;;11.50;;
505;SDS011;551;48.524;9.056;2023-09-12T11:11:43;12.43;;;11.38;;
505;SDS011;551;48.524;9.056;2023-09-12T11:14:11;12.88;;;11.88;;
505;SDS011;551;48.524;9.056;2023-09-12T11:16:37;13.25;;;11.90;;
505;SDS011;551;48.524;9.056;2023-09-12T11:19:22;13.27;;;12.30;;
505;SDS011;551;48.524;9.056;2023-09-12T11:21:51;12.55;;;11.82;;
505;SDS011;551;48.524;9.056;2023-09-12T11:24:18;12.85;;;11.82;;
505;SDS011;551;48.524;9.056;2023-09-12T11:29:27;9.23;;;8.55;;
505;SDS011;551;48.524;9.056;2023-09-12T11:32:01;9.85;;;9.18;;
505;SDS011;551;48.524;9.056;2023-09-12T11:34:28;10.15;;;8.70;;
505;SDS011;551;48.524;9.056;2023-09-12T11:37:00;10.23;;;9.40;;
505;SDS011;551;48.524;9.056;2023-09-12T11:39:28;9.43;;;8.60;;
505;SDS011;551;48.524;9.056;2023-09-12T11:41:55;9.07;;;8.38;;
505;SDS011;551;48.524;9.056;2023-09-12T11:44:22;9.00;;;8.30;;
505;SDS011;551;48.524;9.056;2023-09-12T11:46:48;7.95;;;7.35;;
505;SDS011;551;48.524;9.056;2023-09-12T11:49:15;8.77;;;7.97;;
505;SDS011;551;48.524;9.056;2023-09-12T11:51:48;9.38;;;8.50;;
505;SDS011;551;48.524;9.056;2023-09-12T11:54:15;8.95;;;8.27;;
505;SDS011;551;48.524;9.056;2023-09-12T11:56:43;8.35;;;7.55;;
505;SDS011;551;48.524;9.056;2023-09-12T11:59:09;8.65;;;7.95;;
505;SDS011;551;48.524;9.056;2023-09-12T12:01:35;7.65;;;7.15;;
505;SDS011;551;48.524;9.056;2023-09-12T12:04:00;7.20;;;6.80;;
505;SDS011;551;48.524;9.056;2023-09-12T12:06:26;7.32;;;6.82;;
505;SDS011;551;48.524;9.056;2023-09-12T12:08:52;9.85;;;7.38;;
505;SDS011;551;48.524;9.056;2023-09-12T12:11:19;9.13;;;8.25;;
505;SDS011;551;48.524;9.056;2023-09-12T12:13:45;8.27;;;7.68;;
505;SDS011;551;48.524;9.056;2023-09-12T12:16:14;8.70;;;8.20;;
505;SDS011;551;48.524;9.056;2023-09-12T12:18:41;9.63;;;8.73;;
505;SDS011;551;48.524;9.056;2023-09-12T12:21:07;7.57;;;6.97;;
505;SDS011;551;48.524;9.056;2023-09-12T12:23:32;9.03;;;8.27;;
505;SDS011;551;48.524;9.056;2023-09-12T12:26:02;8.70;;;8.00;;
505;SDS011;551;48.524;9.056;2023-09-12T12:28:30;8.90;;;8.13;;
505;SDS011;551;48.524;9.056;2023-09-12T12:30:57;11.77;;;7.70;;
505;SDS011;551;48.524;9.056;2023-09-12T12:33:27;7.90;;;7.28;;
505;SDS011;551;48.524;9.056;2023-09-12T12:36:00;9.20;;;8.20;;
505;SDS011;551;48.524;9.056;2023-09-12T12:38:25;8.32;;;7.63;;
505;SDS011;551;48.524;9.056;2023-09-12T12:40:51;8.95;;;8.25;;
505;SDS011;551;48.524;9.056;2023-09-12T12:43:17;9.00;;;8.40;;
505;SDS011;551;48.524;9.056;2023-09-12T12:45:54;11.32;;;9.38;;
505;SDS011;551;48.524;9.056;2023-09-12T12:48:30;8.97;;;8.30;;
505;SDS011;551;48.524;9.056;2023-09-12T12:50:57;10.20;;;9.23;;
505;SDS011;551;48.524;9.056;2023-09-12T12:53:39;9.30;;;8.50;;
505;SDS011;551;48.524;9.056;2023-09-12T12:56:05;10.60;;;9.47;;
505;SDS011;551;48.524;9.056;2023-09-12T12:58:31;9.27;;;8.57;;
505;SDS011;551;48.524;9.056;2023-09-12T13:00:57;9.33;;;8.63;;
505;SDS011;551;48.524;9.056;2023-09-12T13:03:22;9.90;;;9.10;;
505;SDS011;551;48.524;9.056;2023-09-12T13:05:47;9.37;;;8.67;;
505;SDS011;551;48.524;9.056;2023-09-12T13:08:13;14.93;;;9.00;;
505;SDS011;551;48.524;9.056;2023-09-12T13:10:38;9.57;;;8.57;;
505;SDS011;551;48.524;9.056;2023-09-12T13:13:04;9.27;;;8.40;;
505;SDS011;551;48.524;9.056;2023-09-12T13:15:29;9.43;;;8.63;;
505;SDS011;551;48.524;9.056;2023-09-12T13:17:55;10.17;;;9.20;;
505;SDS011;551;48.524;9.056;2023-09-12T13:20:20;9.87;;;8.97;;
505;SDS011;551;48.524;9.056;2023-09-12T13:22:46;9.90;;;9.13;;
505;SDS011;551;48.524;9.056;2023-09-12T13:25:11;9.40;;;8.50;;
505;SDS011;551;48.524;9.056;2023-09-12T13:27:37;15.53;;;10.07;;
505;SDS011;551;48.524;9.056;2023-09-12T13:30:03;9.10;;;8.20;;
505;SDS011;551;48.524;9.056;2023-09-12T13:32:29;20.30;;;10.70;;
505;SDS011;551;48.524;9.056;2023-09-12T13:34:55;9.60;;;8.50;;
505;SDS011;551;48.524;9.056;2023-09-12T13:37:20;9.50;;;8.60;;
505;SDS011;551;48.524;9.056;2023-09-12T13:39:46;12.20;;;8.90;;
505;SDS011;551;48.524;9.056;2023-09-12T13:42:14;9.67;;;8.70;;
505;SDS011;551;48.524;9.056;2023-09-12T13:44:44;11.47;;;9.77;;
505;SDS011;551;48.524;9.056;2023-09-12T13:47:10;14.40;;;9.27;;
505;SDS011;551;48.524;9.056;2023-09-12T13:49:36;41.23;;;15.33;;
505;SDS011;551;48.524;9.056;2023-09-12T13:52:01;23.53;;;13.20;;
505;SDS011;551;48.524;9.056;2023-09-12T13:54:27;11.13;;;10.07;;
505;SDS011;551;48.524;9.056;2023-09-12T13:56:53;9.77;;;8.93;;
505;SDS011;551;48.524;9.056;2023-09-12T13:59:18;10.10;;;9.20;;
505;SDS011;551;48.524;9.056;2023-09-12T14:01:45;12.17;;;8.73;;
505;SDS011;551;48.524;9.056;2023-09-12T14:04:11;11.80;;;10.27;;
505;SDS011;551;48.524;9.056;2023-09-12T14:06:38;9.43;;;8.63;;
505;SDS011;551;48.524;9.056;2023-09-12T14:09:03;12.57;;;10.40;;
505;SDS011;551;48.524;9.056;2023-09-12T14:11:29;10.83;;;9.93;;
505;SDS011;551;48.524;9.056;2023-09-12T14:13:55;9.93;;;9.03;;
505;SDS011;551;48.524;9.056;2023-09-12T14:16:21;10.43;;;9.60;;
505;SDS011;551;48.524;9.056;2023-09-12T14:18:46;9.53;;;8.70;;
505;SDS011;551;48.524;9.056;2023-09-12T14:21:12;9.17;;;8.40;;
505;SDS011;551;48.524;9.056;2023-09-12T14:23:37;9.60;;;8.70;;
505;SDS011;551;48.524;9.056;2023-09-12T14:26:03;9.00;;;8.20;;
505;SDS011;551;48.524;9.056;2023-09-12T14:28:28;9.83;;;8.70;;
505;SDS011;551;48.524;9.056;2023-09-12T14:30:56;9.10;;;8.40;;
505;SDS011;551;48.524;9.056;2023-09-12T14:33:22;9.30;;;8.50;;
505;SDS011;551;48.524;9.056;2023-09-12T14:35:48;9.20;;;8.30;;
505;SDS011;551;48.524;9.056;2023-09-12T14:38:13;9.67;;;8.83;;
505;SDS011;551;48.524;9.056;2023-09-12T14:40:39;8.60;;;7.80;;
505;SDS011;551;48.524;9.056;2023-09-12T14:43:04;9.50;;;8.33;;
505;SDS011;551;48.524;9.056;2023-09-12T14:45:30;11.70;;;9.60;;
505;SDS011;551;48.524;9.056;2023-09-12T14:47:56;10.53;;;8.20;;
505;SDS011;551;48.524;9.056;2023-09-12T14:50:22;10.50;;;8.50;;
505;SDS011;551;48.524;9.056;2023-09-12T14:52:54;15.07;;;9.07;;
505;SDS011;551;48.524;9.056;2023-09-12T14:55:19;14.20;;;9.70;;
505;SDS011;551;48.524;9.056;2023-09-12T14:57:45;18.00;;;10.53;;
505;SDS011;551;48.524;9.056;2023-09-12T15:00:10;10.33;;;9.47;;
505;SDS011;551;48.524;9.056;2023-09-12T15:02:36;20.17;;;9.60;;
505;SDS011;551;48.524;9.056;2023-09-12T15:05:02;10.17;;;9.17;;
505;SDS011;551;48.524;9.056;2023-09-12T15:07:28;10.00;;;8.97;;
505;SDS011;551;48.524;9.056;2023-09-12T15:09:54;18.97;;;8.83;;
505;SDS011;551;48.524;9.056;2023-09-12T15:12:20;11.40;;;9.53;;
505;SDS011;551;48.524;9.056;2023-09-12T15:14:46;10.57;;;9.50;;
505;SDS011;551;48.524;9.056;2023-09-12T15:17:11;12.67;;;8.57;;
505;SDS011;551;48.524;9.056;2023-09-12T15:19:37;12.30;;;9.03;;
505;SDS011;551;48.524;9.056;2023-09-12T15:22:02;11.57;;;8.90;;
505;SDS011;551;48.524;9.056;2023-09-12T15:24:28;9.90;;;7.73;;
505;SDS011;551;48.524;9.056;2023-09-12T15:26:53;10.47;;;8.80;;
505;SDS011;551;48.524;9.056;2023-09-12T15:29:19;11.93;;;8.60;;